Donegal Spirit — C6VE7 — position and weather

sailwx.info

Track history (hours):
 
Tides and Currents Weather Stations Pressure Air Temp Water Temp Dewpoint Dewpoint Depression Visibility Wind Speed Wind Dir Waves Ship Positions

Donegal Spirit

Last reported at 2017-Aug-20 01:22 UTC. Time now 2017-Sep-22 01:14 UTC.
Position N 24°56' W 015°52'.
Warning: this ship's position is 32 days out of date.

Length 243 m; draft 8.5 m.

Type: Tanker. MMSI: 311177000.

Date/timePositionNaut miles runAvg speedWind from/ knotsBaromVisibWave heightAir tempDewpointWater temp
2017-Aug-20 01:22N 24°56' W 015°52'2515.3
2017-Aug-19 23:45N 25°17' W 015°37'515.6
2017-Aug-19 23:27N 25°20' W 015°34'1115.7
2017-Aug-19 22:46N 25°29' W 015°28'715.9
2017-Aug-19 22:20N 25°35' W 015°23'1915.8
2017-Aug-19 21:07N 25°51' W 015°11'1515.7
2017-Aug-19 20:09N 26°03' W 015°01'7415.5
2017-Aug-19 15:24N 27°04' W 014°14'2215.4
2017-Aug-19 13:58N 27°22' W 013°60'815.9
2017-Aug-19 13:30N 27°28' W 013°55'915.7
2017-Aug-19 12:56N 27°35' W 013°49'715.6
2017-Aug-19 12:30N 27°41' W 013°45'815.6
2017-Aug-19 12:00N 27°47' W 013°40'815.3
2017-Aug-19 11:30N 27°53' W 013°35'915.4
2017-Aug-19 10:57N 28°00' W 013°30'715.4
2017-Aug-19 10:30N 28°06' W 013°25'815.3
2017-Aug-19 10:00N 28°13' W 013°21'815.7
2017-Aug-19 09:30N 28°19' W 013°16'815.7
2017-Aug-19 09:00N 28°26' W 013°11'815.4
2017-Aug-19 08:29N 28°32' W 013°05'815.2
2017-Aug-19 07:59N 28°39' W 013°00'715.5
2017-Aug-19 07:30N 28°45' W 012°56'915.6
2017-Aug-19 06:56N 28°52' W 012°50'715.6
2017-Aug-19 06:30N 28°58' W 012°46'815.6
2017-Aug-19 05:58N 29°04' W 012°40'715.4
2017-Aug-19 05:30N 29°10' W 012°36'815.4
2017-Aug-19 05:00N 29°17' W 012°31'815.5
2017-Aug-19 04:30N 29°23' W 012°26'815.4
2017-Aug-19 04:00N 29°30' W 012°21'915.6
2017-Aug-19 03:26N 29°37' W 012°16'715.7
2017-Aug-19 03:00N 29°43' W 012°11'815.6
2017-Aug-19 02:30N 29°49' W 012°06'815.5
2017-Aug-19 01:58N 29°56' W 012°01'815.4
2017-Aug-19 01:27N 30°03' W 011°55'715.2
2017-Aug-19 01:00N 30°08' W 011°51'815.0
2017-Aug-19 00:30N 30°14' W 011°46'815.2
2017-Aug-19 00:00N 30°21' W 011°41'815.3
2017-Aug-18 23:30N 30°27' W 011°36'815.2
2017-Aug-18 22:59N 30°33' W 011°31'715.3
2017-Aug-18 22:30N 30°40' W 011°26'815.6
2017-Aug-18 22:00N 30°46' W 011°21'816.1
2017-Aug-18 21:30N 30°53' W 011°16'816.4
2017-Aug-18 21:00N 30°59' W 011°10'816.2
2017-Aug-18 20:30N 31°06' W 011°05'816.0
2017-Aug-18 20:00N 31°13' W 011°00'816.0
2017-Aug-18 19:30N 31°19' W 010°55'816.0
2017-Aug-18 19:00N 31°26' W 010°49'816.1
2017-Aug-18 18:30N 31°33' W 010°44'816.0
2017-Aug-18 18:00N 31°40' W 010°39'816.0
2017-Aug-18 17:30N 31°46' W 010°34'815.8
2017-Aug-18 16:59N 31°53' W 010°29'815.6
2017-Aug-18 16:27N 31°60' W 010°23'715.8
2017-Aug-18 16:00N 32°06' W 010°18'815.7
2017-Aug-18 15:30N 32°12' W 010°13'815.7
2017-Aug-18 15:00N 32°19' W 010°08'815.6
2017-Aug-18 14:30N 32°25' W 010°03'3115.6
2017-Aug-18 12:29N 32°51' W 009°42'9315.4
2017-Aug-18 06:27N 33°58' W 008°25'715.0
2017-Aug-18 05:59N 34°03' W 008°18'1215.1
2017-Aug-18 05:11N 34°11' W 008°08'315.1
2017-Aug-18 04:59N 34°13' W 008°05'7515.1
2017-Aug-18 00:02N 35°06' W 007°00'115.4
2017-Aug-17 23:57N 35°07' W 006°59'1115.5
2017-Aug-17 23:16N 35°14' W 006°50'1115.5
2017-Aug-17 22:34N 35°21' W 006°40'615.5
2017-Aug-17 22:12N 35°26' W 006°35'415.8
2017-Aug-17 21:58N 35°28' W 006°32'66 6.6
2017-Aug-17 12:02N 36°05' W 005°25'0 0.1
2017-Aug-17 12:01N 36°05' W 005°25'0 0.1
2017-Aug-17 11:31N 36°05' W 005°25'0 0.1
2017-Aug-17 11:00N 36°05' W 005°25'0 0.1
2017-Aug-17 10:31N 36°05' W 005°25'0 0.1
2017-Aug-17 10:00N 36°05' W 005°25'0 0.0
2017-Aug-17 08:50N 36°05' W 005°25'0 0.0
2017-Aug-17 08:30N 36°05' W 005°25'0 0.1
2017-Aug-17 08:01N 36°05' W 005°25'0 0.0
2017-Aug-17 07:24N 36°05' W 005°25'0 0.0
2017-Aug-17 07:00N 36°05' W 005°25'0 0.0
2017-Aug-17 04:55N 36°05' W 005°25'0 0.1
2017-Aug-17 04:30N 36°05' W 005°25'0 0.2
2017-Aug-17 04:01N 36°05' W 005°25'0 0.0
2017-Aug-17 03:27N 36°05' W 005°25'0 0.0
2017-Aug-17 03:00N 36°05' W 005°25'0 0.1
2017-Aug-17 02:30N 36°05' W 005°25'0 0.2
2017-Aug-17 02:01N 36°05' W 005°25'1 2.9
2017-Aug-17 01:30N 36°06' W 005°24'2 3.5
2017-Aug-17 00:49N 36°08' W 005°23'0 0.6
2017-Aug-17 00:27N 36°08' W 005°23'4 0.8
2017-Aug-16 19:12N 36°05' W 005°20'210.3
2017-Aug-16 18:59N 36°05' W 005°17'4 7.5
2017-Aug-16 18:28N 36°08' W 005°14'3 4.7
2017-Aug-16 17:50N 36°05' W 005°14'2 4.6
2017-Aug-16 17:30N 36°03' W 005°13'21414.7
2017-Aug-16 02:56N 36°36' W 000°51'715.6
2017-Aug-16 02:30N 36°37' W 000°43'915.8
2017-Aug-16 01:57N 36°38' W 000°32'815.7
2017-Aug-16 01:25N 36°40' W 000°22'1015.1
2017-Aug-16 00:46N 36°41' W 000°10'415.1
2017-Aug-16 00:31N 36°42' W 000°05'1015.0
2017-Aug-15 23:51N 36°44' E 000°07'514.7
2017-Aug-15 23:30N 36°44' E 000°14'714.5
2017-Aug-15 23:00N 36°45' E 000°23'714.6
2017-Aug-15 22:30N 36°47' E 000°32'714.4
2017-Aug-15 22:00N 36°48' E 000°41'714.1
2017-Aug-15 21:30N 36°49' E 000°49'714.3
2017-Aug-15 21:00N 36°50' E 000°58'814.9
2017-Aug-15 20:27N 36°51' E 001°08'715.2
2017-Aug-15 20:00N 36°52' E 001°16'815.9
2017-Aug-15 19:30N 36°53' E 001°26'815.7
2017-Aug-15 19:00N 36°55' E 001°36'815.5
2017-Aug-15 18:30N 36°57' E 001°45'815.3
2017-Aug-15 18:00N 36°58' E 001°55'815.2
2017-Aug-15 17:30N 36°59' E 002°04'815.2
2017-Aug-15 17:00N 36°60' E 002°14'815.2
2017-Aug-15 16:30N 37°01' E 002°23'815.0
2017-Aug-15 16:00N 37°03' E 002°32'815.4
2017-Aug-15 15:30N 37°03' E 002°42'815.5
2017-Aug-15 15:00N 37°04' E 002°52'815.6
2017-Aug-15 14:30N 37°06' E 003°01'815.4
2017-Aug-15 14:00N 37°07' E 003°11'815.4
2017-Aug-15 13:30N 37°08' E 003°20'815.5
2017-Aug-15 13:00N 37°09' E 003°30'815.7
2017-Aug-15 12:30N 37°10' E 003°40'816.2
2017-Aug-15 12:00N 37°11' E 003°50'816.3
2017-Aug-15 11:30N 37°13' E 003°60'816.0
2017-Aug-15 11:00N 37°14' E 004°10'816.0
2017-Aug-15 10:30N 37°16' E 004°20'714.7
2017-Aug-15 10:00N 37°17' E 004°29'715.0
2017-Aug-15 09:30N 37°17' E 004°38'815.3
2017-Aug-15 09:00N 37°18' E 004°48'815.6
2017-Aug-15 08:30N 37°20' E 004°57'815.4
2017-Aug-15 08:00N 37°21' E 005°07'815.1
2017-Aug-15 07:30N 37°22' E 005°16'815.1
2017-Aug-15 07:00N 37°24' E 005°26'715.2
2017-Aug-15 06:30N 37°24' E 005°35'815.3
2017-Aug-15 06:00N 37°26' E 005°45'1515.5
2017-Aug-15 05:03N 37°28' E 006°03'2415.3
2017-Aug-15 03:30N 37°32' E 006°32'714.9
2017-Aug-15 03:00N 37°33' E 006°42'5714.6
2017-Aug-14 23:04N 37°39' E 007°54'315.5
2017-Aug-14 22:53N 37°39' E 007°57'1215.8
2017-Aug-14 22:08N 37°39' E 008°12'616.2
2017-Aug-14 21:45N 37°39' E 008°20'416.0
2017-Aug-14 21:30N 37°39' E 008°25'816.0
2017-Aug-14 20:59N 37°39' E 008°35'815.7
2017-Aug-14 20:30N 37°39' E 008°45'815.5
2017-Aug-14 20:00N 37°39' E 008°55'815.3
2017-Aug-14 19:29N 37°39' E 009°05'815.3
2017-Aug-14 18:59N 37°39' E 009°14'715.3
2017-Aug-14 18:30N 37°39' E 009°24'815.3
2017-Aug-14 18:00N 37°39' E 009°33'815.2
2017-Aug-14 17:30N 37°39' E 009°43'815.5
2017-Aug-14 17:00N 37°39' E 009°53'815.5
2017-Aug-14 16:29N 37°39' E 010°03'815.4
2017-Aug-14 16:00N 37°39' E 010°13'815.4
2017-Aug-14 15:30N 37°39' E 010°22'815.3
2017-Aug-14 14:59N 37°39' E 010°32'915.1
2017-Aug-14 14:22N 37°39' E 010°44'615.4
2017-Aug-14 14:00N 37°37' E 010°50'815.2
2017-Aug-14 13:29N 37°33' E 010°59'11415.1
2017-Aug-14 05:54N 36°44' E 013°08'615.5
2017-Aug-14 05:30N 36°43' E 013°16'815.5
2017-Aug-14 05:00N 36°42' E 013°26'815.5
2017-Aug-14 04:30N 36°41' E 013°35'815.3
2017-Aug-14 04:00N 36°39' E 013°44'815.5
2017-Aug-14 03:30N 36°37' E 013°54'815.7
2017-Aug-14 03:00N 36°35' E 014°03'815.9
2017-Aug-14 02:30N 36°33' E 014°13'815.8
2017-Aug-14 02:00N 36°31' E 014°22'815.6
2017-Aug-14 01:30N 36°30' E 014°32'815.1
2017-Aug-14 01:00N 36°29' E 014°41'1014.9
2017-Aug-14 00:21N 36°31' E 014°53'615.6
2017-Aug-13 23:59N 36°32' E 015°00'  
Track history (hours):
 
Tides and Currents Weather Stations Pressure Air Temp Water Temp Dewpoint Dewpoint Depression Visibility Wind Speed Wind Dir Waves Ship Positions

Donegal Spirit

Last reported at 2017-Aug-20 01:22 UTC. Time now 2017-Sep-22 01:14 UTC.
Position N 24°56' W 015°52'.
Warning: this ship's position is 32 days out of date.

Length 243 m; draft 8.5 m.

Type: Tanker. MMSI: 311177000.

Date/timePositionNaut miles runAvg speedWind from/ knotsBaromVisibWave heightAir tempDewpointWater temp
2017-Aug-20 01:22N 24°56' W 015°52'2515.3
2017-Aug-19 23:45N 25°17' W 015°37'515.6
2017-Aug-19 23:27N 25°20' W 015°34'1115.7
2017-Aug-19 22:46N 25°29' W 015°28'715.9
2017-Aug-19 22:20N 25°35' W 015°23'1915.8
2017-Aug-19 21:07N 25°51' W 015°11'1515.7
2017-Aug-19 20:09N 26°03' W 015°01'7415.5
2017-Aug-19 15:24N 27°04' W 014°14'2215.4
2017-Aug-19 13:58N 27°22' W 013°60'815.9
2017-Aug-19 13:30N 27°28' W 013°55'915.7
2017-Aug-19 12:56N 27°35' W 013°49'715.6
2017-Aug-19 12:30N 27°41' W 013°45'815.6
2017-Aug-19 12:00N 27°47' W 013°40'815.3
2017-Aug-19 11:30N 27°53' W 013°35'915.4
2017-Aug-19 10:57N 28°00' W 013°30'715.4
2017-Aug-19 10:30N 28°06' W 013°25'815.3
2017-Aug-19 10:00N 28°13' W 013°21'815.7
2017-Aug-19 09:30N 28°19' W 013°16'815.7
2017-Aug-19 09:00N 28°26' W 013°11'815.4
2017-Aug-19 08:29N 28°32' W 013°05'815.2
2017-Aug-19 07:59N 28°39' W 013°00'715.5
2017-Aug-19 07:30N 28°45' W 012°56'915.6
2017-Aug-19 06:56N 28°52' W 012°50'715.6
2017-Aug-19 06:30N 28°58' W 012°46'815.6
2017-Aug-19 05:58N 29°04' W 012°40'715.4
2017-Aug-19 05:30N 29°10' W 012°36'815.4
2017-Aug-19 05:00N 29°17' W 012°31'815.5
2017-Aug-19 04:30N 29°23' W 012°26'815.4
2017-Aug-19 04:00N 29°30' W 012°21'915.6
2017-Aug-19 03:26N 29°37' W 012°16'715.7
2017-Aug-19 03:00N 29°43' W 012°11'815.6
2017-Aug-19 02:30N 29°49' W 012°06'815.5
2017-Aug-19 01:58N 29°56' W 012°01'815.4
2017-Aug-19 01:27N 30°03' W 011°55'715.2
2017-Aug-19 01:00N 30°08' W 011°51'815.0
2017-Aug-19 00:30N 30°14' W 011°46'815.2
2017-Aug-19 00:00N 30°21' W 011°41'815.3
2017-Aug-18 23:30N 30°27' W 011°36'815.2
2017-Aug-18 22:59N 30°33' W 011°31'715.3
2017-Aug-18 22:30N 30°40' W 011°26'815.6
2017-Aug-18 22:00N 30°46' W 011°21'816.1
2017-Aug-18 21:30N 30°53' W 011°16'816.4
2017-Aug-18 21:00N 30°59' W 011°10'816.2
2017-Aug-18 20:30N 31°06' W 011°05'816.0
2017-Aug-18 20:00N 31°13' W 011°00'816.0
2017-Aug-18 19:30N 31°19' W 010°55'816.0
2017-Aug-18 19:00N 31°26' W 010°49'816.1
2017-Aug-18 18:30N 31°33' W 010°44'816.0
2017-Aug-18 18:00N 31°40' W 010°39'816.0
2017-Aug-18 17:30N 31°46' W 010°34'815.8
2017-Aug-18 16:59N 31°53' W 010°29'815.6
2017-Aug-18 16:27N 31°60' W 010°23'715.8
2017-Aug-18 16:00N 32°06' W 010°18'815.7
2017-Aug-18 15:30N 32°12' W 010°13'815.7
2017-Aug-18 15:00N 32°19' W 010°08'815.6
2017-Aug-18 14:30N 32°25' W 010°03'3115.6
2017-Aug-18 12:29N 32°51' W 009°42'9315.4
2017-Aug-18 06:27N 33°58' W 008°25'715.0
2017-Aug-18 05:59N 34°03' W 008°18'1215.1
2017-Aug-18 05:11N 34°11' W 008°08'315.1
2017-Aug-18 04:59N 34°13' W 008°05'7515.1
2017-Aug-18 00:02N 35°06' W 007°00'115.4
2017-Aug-17 23:57N 35°07' W 006°59'1115.5
2017-Aug-17 23:16N 35°14' W 006°50'1115.5
2017-Aug-17 22:34N 35°21' W 006°40'615.5
2017-Aug-17 22:12N 35°26' W 006°35'415.8
2017-Aug-17 21:58N 35°28' W 006°32'66 6.6
2017-Aug-17 12:02N 36°05' W 005°25'0 0.1
2017-Aug-17 12:01N 36°05' W 005°25'0 0.1
2017-Aug-17 11:31N 36°05' W 005°25'0 0.1
2017-Aug-17 11:00N 36°05' W 005°25'0 0.1
2017-Aug-17 10:31N 36°05' W 005°25'0 0.1
2017-Aug-17 10:00N 36°05' W 005°25'0 0.0
2017-Aug-17 08:50N 36°05' W 005°25'0 0.0
2017-Aug-17 08:30N 36°05' W 005°25'0 0.1
2017-Aug-17 08:01N 36°05' W 005°25'0 0.0
2017-Aug-17 07:24N 36°05' W 005°25'0 0.0
2017-Aug-17 07:00N 36°05' W 005°25'0 0.0
2017-Aug-17 04:55N 36°05' W 005°25'0 0.1
2017-Aug-17 04:30N 36°05' W 005°25'0 0.2
2017-Aug-17 04:01N 36°05' W 005°25'0 0.0
2017-Aug-17 03:27N 36°05' W 005°25'0 0.0
2017-Aug-17 03:00N 36°05' W 005°25'0 0.1
2017-Aug-17 02:30N 36°05' W 005°25'0 0.2
2017-Aug-17 02:01N 36°05' W 005°25'1 2.9
2017-Aug-17 01:30N 36°06' W 005°24'2 3.5
2017-Aug-17 00:49N 36°08' W 005°23'0 0.6
2017-Aug-17 00:27N 36°08' W 005°23'4 0.8
2017-Aug-16 19:12N 36°05' W 005°20'210.3
2017-Aug-16 18:59N 36°05' W 005°17'4 7.5
2017-Aug-16 18:28N 36°08' W 005°14'3 4.7
2017-Aug-16 17:50N 36°05' W 005°14'2 4.6
2017-Aug-16 17:30N 36°03' W 005°13'21414.7
2017-Aug-16 02:56N 36°36' W 000°51'715.6
2017-Aug-16 02:30N 36°37' W 000°43'915.8
2017-Aug-16 01:57N 36°38' W 000°32'815.7
2017-Aug-16 01:25N 36°40' W 000°22'1015.1
2017-Aug-16 00:46N 36°41' W 000°10'415.1
2017-Aug-16 00:31N 36°42' W 000°05'1015.0
2017-Aug-15 23:51N 36°44' E 000°07'514.7
2017-Aug-15 23:30N 36°44' E 000°14'714.5
2017-Aug-15 23:00N 36°45' E 000°23'714.6
2017-Aug-15 22:30N 36°47' E 000°32'714.4
2017-Aug-15 22:00N 36°48' E 000°41'714.1
2017-Aug-15 21:30N 36°49' E 000°49'714.3
2017-Aug-15 21:00N 36°50' E 000°58'814.9
2017-Aug-15 20:27N 36°51' E 001°08'715.2
2017-Aug-15 20:00N 36°52' E 001°16'815.9
2017-Aug-15 19:30N 36°53' E 001°26'815.7
2017-Aug-15 19:00N 36°55' E 001°36'815.5
2017-Aug-15 18:30N 36°57' E 001°45'815.3
2017-Aug-15 18:00N 36°58' E 001°55'815.2
2017-Aug-15 17:30N 36°59' E 002°04'815.2
2017-Aug-15 17:00N 36°60' E 002°14'815.2
2017-Aug-15 16:30N 37°01' E 002°23'815.0
2017-Aug-15 16:00N 37°03' E 002°32'815.4
2017-Aug-15 15:30N 37°03' E 002°42'815.5
2017-Aug-15 15:00N 37°04' E 002°52'815.6
2017-Aug-15 14:30N 37°06' E 003°01'815.4
2017-Aug-15 14:00N 37°07' E 003°11'815.4
2017-Aug-15 13:30N 37°08' E 003°20'815.5
2017-Aug-15 13:00N 37°09' E 003°30'815.7
2017-Aug-15 12:30N 37°10' E 003°40'816.2
2017-Aug-15 12:00N 37°11' E 003°50'816.3
2017-Aug-15 11:30N 37°13' E 003°60'816.0
2017-Aug-15 11:00N 37°14' E 004°10'816.0
2017-Aug-15 10:30N 37°16' E 004°20'714.7
2017-Aug-15 10:00N 37°17' E 004°29'715.0
2017-Aug-15 09:30N 37°17' E 004°38'815.3
2017-Aug-15 09:00N 37°18' E 004°48'815.6
2017-Aug-15 08:30N 37°20' E 004°57'815.4
2017-Aug-15 08:00N 37°21' E 005°07'815.1
2017-Aug-15 07:30N 37°22' E 005°16'815.1
2017-Aug-15 07:00N 37°24' E 005°26'715.2
2017-Aug-15 06:30N 37°24' E 005°35'815.3
2017-Aug-15 06:00N 37°26' E 005°45'1515.5
2017-Aug-15 05:03N 37°28' E 006°03'2415.3
2017-Aug-15 03:30N 37°32' E 006°32'714.9
2017-Aug-15 03:00N 37°33' E 006°42'5714.6
2017-Aug-14 23:04N 37°39' E 007°54'315.5
2017-Aug-14 22:53N 37°39' E 007°57'1215.8
2017-Aug-14 22:08N 37°39' E 008°12'616.2
2017-Aug-14 21:45N 37°39' E 008°20'416.0
2017-Aug-14 21:30N 37°39' E 008°25'816.0
2017-Aug-14 20:59N 37°39' E 008°35'815.7
2017-Aug-14 20:30N 37°39' E 008°45'815.5
2017-Aug-14 20:00N 37°39' E 008°55'815.3
2017-Aug-14 19:29N 37°39' E 009°05'815.3
2017-Aug-14 18:59N 37°39' E 009°14'715.3
2017-Aug-14 18:30N 37°39' E 009°24'815.3
2017-Aug-14 18:00N 37°39' E 009°33'815.2
2017-Aug-14 17:30N 37°39' E 009°43'815.5
2017-Aug-14 17:00N 37°39' E 009°53'815.5
2017-Aug-14 16:29N 37°39' E 010°03'815.4
2017-Aug-14 16:00N 37°39' E 010°13'815.4
2017-Aug-14 15:30N 37°39' E 010°22'815.3
2017-Aug-14 14:59N 37°39' E 010°32'915.1
2017-Aug-14 14:22N 37°39' E 010°44'615.4
2017-Aug-14 14:00N 37°37' E 010°50'815.2
2017-Aug-14 13:29N 37°33' E 010°59'11415.1
2017-Aug-14 05:54N 36°44' E 013°08'615.5
2017-Aug-14 05:30N 36°43' E 013°16'815.5
2017-Aug-14 05:00N 36°42' E 013°26'815.5
2017-Aug-14 04:30N 36°41' E 013°35'815.3
2017-Aug-14 04:00N 36°39' E 013°44'815.5
2017-Aug-14 03:30N 36°37' E 013°54'815.7
2017-Aug-14 03:00N 36°35' E 014°03'815.9
2017-Aug-14 02:30N 36°33' E 014°13'815.8
2017-Aug-14 02:00N 36°31' E 014°22'815.6
2017-Aug-14 01:30N 36°30' E 014°32'815.1
2017-Aug-14 01:00N 36°29' E 014°41'1014.9
2017-Aug-14 00:21N 36°31' E 014°53'615.6
2017-Aug-13 23:59N 36°32' E 015°00'  

Dump ship's entire track history